FAHS/HDS METAR and TAF weather

Enter ICAO airport designator
Station Type Date Time Source
FAHS METAR 2021/05/11 17:00 UTC NOAA

FAHS 111700Z AUTO 07004KT //// // ////// 22/09 Q1023


Station Type Date Time Source
FAHS Decoded METAR 2021/05/11 17:00 UTC NOAA

Hoedspruit, South Africa (FAHS) 24-22S 031-02E 500M
May 11, 2021 - 01:00 PM EDT / 2021.05.11 1700 UTC
Wind: from the ENE (070 degrees) at 5 MPH (4 KT):0
Temperature: 71 F (22 C)
Dew Point: 48 F (9 C)
Relative Humidity: 43%
Pressure (altimeter): 30.21 in. Hg (1023 hPa)
ob: FAHS 111700Z AUTO 07004KT //// // ////// 22/09 Q1023
cycle: 17

Station Type Date Time Source
FAHS TAF 2017/05/23 04:01 UTC NOAA

TAF FAHS 230300Z 2304/2315 VRB02KT CAVOK TX29/2312ZTN12/2304Z

Example: see airport list